Route Details

Aircraft Information
Group: Hub to Hub
Types: B744, MD11, B763, B762, B752, B738
Route Data
Distance: 1994nm
Duration: 5h 34m
Origin METAR: KMIA 100453Z 35003KT 10SM FEW030 22/18 A3009 RMK AO2 SLP188 T02220183 402780194
Dest. METAR: KONT 100453Z 00000KT 10SM CLR 10/06 A3012 RMK AO2 SLP201 T01000056
Freight Data
(for Dec 10, 2022)
Load Factor:
52%
Manifested Cargo: 65,766lbs
Financial History
Total Freight: 247,069lbs
Average Load: 0lbs/flt
Fuel Used: 242,245lbs
Avg. Fuel Used: 0lbs/flt
Fuel Expense: $131,403
Avg. Fuel Expense: $0
Avg. Fuel Cost: $0/lbs
Total Gross Income: $669,557
Pilot Pay: $707
Total Expenses: $132,326
Total Revenue: $400,220
Average Revenue: $0

Capitol Logistics 402




KMIA
Miami International Airport
Miami, Florida
KONT
Ontario International Airport
Ontario, California